createdAt,value
2022-09-28T00:01:07.728Z,8.71
2022-09-28T00:03:34.465Z,8.84
2022-09-28T00:06:02.922Z,8.71
2022-09-28T00:08:29.516Z,8.81
2022-09-28T00:10:56.949Z,8.68
2022-09-28T00:13:24.632Z,8.77
2022-09-28T00:16:03.342Z,8.67
2022-09-28T00:18:30.644Z,8.65
2022-09-28T00:21:08.776Z,8.67
2022-09-28T00:23:56.355Z,8.66
2022-09-28T00:26:23.241Z,8.57
2022-09-28T00:29:00.825Z,8.63
2022-09-28T00:31:30.237Z,8.61
2022-09-28T00:33:57.085Z,8.75
2022-09-28T00:36:24.802Z,8.70
2022-09-28T00:38:52.227Z,8.84
2022-09-28T00:41:18.819Z,8.64
2022-09-28T00:43:45.439Z,8.69
2022-09-28T00:46:18.912Z,8.58
2022-09-28T00:48:59.026Z,8.59
2022-09-28T00:51:26.978Z,8.62
2022-09-28T00:53:56.151Z,8.66
2022-09-28T00:56:28.286Z,8.61
2022-09-28T00:58:55.199Z,8.51
2022-09-28T01:01:22.808Z,8.53
2022-09-28T01:03:49.708Z,8.47
2022-09-28T01:06:27.548Z,8.27
2022-09-28T01:08:58.340Z,8.31
2022-09-28T01:11:26.928Z,8.22
2022-09-28T01:13:56.120Z,8.17
2022-09-28T01:16:39.111Z,8.24
2022-09-28T01:19:48.843Z,8.34
2022-09-28T01:22:29.185Z,8.08
2022-09-28T01:25:10.197Z,8.01
2022-09-28T01:27:49.422Z,7.90
2022-09-28T01:30:20.083Z,7.96
2022-09-28T01:33:05.110Z,8.04
2022-09-28T01:35:37.522Z,7.85
2022-09-28T01:38:31.072Z,7.89
2022-09-28T01:41:00.458Z,7.91
2022-09-28T01:43:28.811Z,7.95
2022-09-28T01:46:14.224Z,8.04
2022-09-28T01:48:50.121Z,8.00
2022-09-28T01:51:56.145Z,8.09
2022-09-28T01:54:50.994Z,7.99
2022-09-28T01:57:48.011Z,7.96
2022-09-28T02:00:18.050Z,7.87
2022-09-28T02:02:56.237Z,7.64
2022-09-28T02:05:38.995Z,7.90
2022-09-28T02:08:16.070Z,7.92
2022-09-28T02:11:11.015Z,8.15
2022-09-28T02:13:42.842Z,8.16
2022-09-28T02:16:21.625Z,8.07
2022-09-28T02:18:50.552Z,8.08
2022-09-28T02:21:28.138Z,8.15
2022-09-28T02:24:03.418Z,7.99
2022-09-28T02:26:35.493Z,8.06
2022-09-28T02:29:02.146Z,8.04
2022-09-28T02:31:28.799Z,8.06
2022-09-28T02:33:57.460Z,7.92
2022-09-28T02:36:25.831Z,7.91
2022-09-28T02:38:53.317Z,7.98
2022-09-28T02:41:35.219Z,7.86
2022-09-28T02:44:37.395Z,7.72
2022-09-28T02:47:21.882Z,7.83
2022-09-28T02:50:10.489Z,8.00
2022-09-28T02:52:43.310Z,8.07
2022-09-28T02:55:45.331Z,8.18
2022-09-28T02:58:21.165Z,8.15
2022-09-28T03:01:01.774Z,8.07
2022-09-28T03:03:41.500Z,8.01
2022-09-28T03:06:18.668Z,8.00
2022-09-28T03:09:04.708Z,7.84
2022-09-28T03:11:39.662Z,7.72
2022-09-28T03:14:07.168Z,7.65
2022-09-28T03:16:44.667Z,7.66
2022-09-28T03:19:12.576Z,7.65
2022-09-28T03:21:39.315Z,7.66
2022-09-28T03:24:06.352Z,7.73
2022-09-28T03:26:33.410Z,7.75
2022-09-28T03:29:00.046Z,7.76
2022-09-28T03:31:27.517Z,7.84
2022-09-28T03:33:54.283Z,7.79
2022-09-28T03:36:20.766Z,7.73
2022-09-28T03:38:47.721Z,7.58
2022-09-28T03:41:14.245Z,7.60
2022-09-28T03:43:42.685Z,7.59
2022-09-28T03:46:09.984Z,7.84
2022-09-28T03:48:41.834Z,7.81
2022-09-28T03:51:11.187Z,7.85
2022-09-28T03:53:39.055Z,7.88
2022-09-28T03:56:11.845Z,7.87
2022-09-28T03:58:39.097Z,7.96
2022-09-28T04:01:17.683Z,8.11
2022-09-28T04:03:46.747Z,8.07
2022-09-28T04:06:13.803Z,8.05
2022-09-28T04:08:40.500Z,8.16
2022-09-28T04:11:08.140Z,8.18
2022-09-28T04:13:34.787Z,8.14
2022-09-28T04:16:01.949Z,8.14
2022-09-28T04:18:32.812Z,8.15
2022-09-28T04:21:22.526Z,8.24
2022-09-28T04:23:54.469Z,8.29
2022-09-28T04:26:23.963Z,8.38
2022-09-28T04:29:09.618Z,8.38
2022-09-28T04:31:42.744Z,8.33
2022-09-28T04:34:09.932Z,8.45
2022-09-28T04:36:37.142Z,8.44
2022-09-28T04:39:05.299Z,8.29
2022-09-28T04:41:32.850Z,8.35
2022-09-28T04:43:59.389Z,8.32
2022-09-28T04:46:26.307Z,8.18
2022-09-28T04:49:10.484Z,8.18
2022-09-28T04:51:52.655Z,8.16
2022-09-28T04:54:19.239Z,8.15
2022-09-28T04:56:45.823Z,8.08
2022-09-28T04:59:13.461Z,8.07
2022-09-28T05:01:41.275Z,8.02
2022-09-28T05:04:26.508Z,7.83
2022-09-28T05:07:26.951Z,7.80
2022-09-28T05:09:55.223Z,7.75
2022-09-28T05:12:22.020Z,7.72
2022-09-28T05:14:48.618Z,7.62
2022-09-28T05:17:15.312Z,7.54
2022-09-28T05:20:03.837Z,7.75
2022-09-28T05:22:30.726Z,7.70
2022-09-28T05:24:58.888Z,7.76
2022-09-28T05:27:25.529Z,7.87
2022-09-28T05:30:00.440Z,7.86
2022-09-28T05:32:29.698Z,7.84
2022-09-28T05:35:11.724Z,7.81
2022-09-28T05:37:41.579Z,7.91
2022-09-28T05:40:08.588Z,7.84
2022-09-28T05:42:35.673Z,7.88
2022-09-28T05:45:03.367Z,7.84
2022-09-28T05:47:30.039Z,7.98
2022-09-28T05:49:56.707Z,8.01
2022-09-28T05:52:23.249Z,8.12
2022-09-28T05:54:49.858Z,8.12
2022-09-28T05:57:16.452Z,8.17
2022-09-28T05:59:43.054Z,8.26
2022-09-28T06:02:10.662Z,8.21
2022-09-28T06:04:37.326Z,8.24
2022-09-28T06:07:03.932Z,8.25
2022-09-28T06:09:30.661Z,8.24
2022-09-28T06:12:16.132Z,8.30
2022-09-28T06:14:46.678Z,8.28
2022-09-28T06:17:13.648Z,8.33
2022-09-28T06:19:40.432Z,8.19
2022-09-28T06:22:16.460Z,8.24
2022-09-28T06:24:50.002Z,8.27
2022-09-28T06:27:16.808Z,8.24
2022-09-28T06:29:43.457Z,8.28
2022-09-28T06:32:10.158Z,8.29
2022-09-28T06:34:38.261Z,8.22
2022-09-28T06:37:05.186Z,8.34
2022-09-28T06:39:32.329Z,8.52
2022-09-28T06:42:04.341Z,8.58
2022-09-28T06:44:52.120Z,8.59
2022-09-28T06:47:42.684Z,8.78
2022-09-28T06:50:26.391Z,8.83
2022-09-28T06:53:13.683Z,8.83
2022-09-28T06:55:49.458Z,8.88
2022-09-28T06:58:20.646Z,8.85
2022-09-28T07:00:50.011Z,8.97
2022-09-28T07:03:19.921Z,8.96
2022-09-28T07:06:06.815Z,9.09
2022-09-28T07:08:33.385Z,9.09
2022-09-28T07:11:07.243Z,9.15
2022-09-28T07:13:50.959Z,9.13
2022-09-28T07:16:25.667Z,9.12
2022-09-28T07:18:53.883Z,9.24
2022-09-28T07:21:29.091Z,9.20
2022-09-28T07:23:59.929Z,9.19
2022-09-28T07:26:46.436Z,9.14
2022-09-28T07:29:29.314Z,9.23
2022-09-28T07:32:00.463Z,9.06
2022-09-28T07:34:44.511Z,9.05
2022-09-28T07:37:19.112Z,9.15
2022-09-28T07:40:05.462Z,9.15
2022-09-28T07:42:36.211Z,9.07
2022-09-28T07:45:03.591Z,9.18
2022-09-28T07:47:34.831Z,9.06
2022-09-28T07:50:21.203Z,9.11
2022-09-28T07:52:56.327Z,9.19
2022-09-28T07:55:28.797Z,9.12
2022-09-28T07:58:08.495Z,9.04
2022-09-28T08:01:04.797Z,8.97
2022-09-28T08:03:31.447Z,8.93
2022-09-28T08:06:02.545Z,8.86
2022-09-28T08:08:29.910Z,8.90
2022-09-28T08:10:57.743Z,8.86
2022-09-28T08:13:44.093Z,8.86
2022-09-28T08:16:30.235Z,8.77
2022-09-28T08:19:10.165Z,8.69
2022-09-28T08:21:45.757Z,8.71
2022-09-28T08:24:15.387Z,8.68
2022-09-28T08:26:43.236Z,8.73
2022-09-28T08:29:12.133Z,8.75
2022-09-28T08:31:50.598Z,8.58
2022-09-28T08:34:39.947Z,8.61
2022-09-28T08:37:09.680Z,8.70
2022-09-28T08:40:19.117Z,8.58
2022-09-28T08:43:06.304Z,8.60
2022-09-28T08:45:52.371Z,8.39
2022-09-28T08:49:24.550Z,8.27
2022-09-28T08:52:26.064Z,8.23
2022-09-28T08:55:30.013Z,8.17
2022-09-28T08:58:05.518Z,8.19
2022-09-28T09:00:49.807Z,8.10
2022-09-28T09:03:31.964Z,8.28
2022-09-28T09:06:29.662Z,8.41
2022-09-28T09:09:31.453Z,8.39
2022-09-28T09:12:30.976Z,8.13
2022-09-28T09:15:10.075Z,8.12
2022-09-28T09:17:50.161Z,8.03
2022-09-28T09:20:36.395Z,8.00
2022-09-28T09:23:18.547Z,7.92
2022-09-28T09:25:51.054Z,7.96
2022-09-28T09:28:44.842Z,8.14
2022-09-28T09:31:30.205Z,8.23
2022-09-28T09:34:28.594Z,8.35
2022-09-28T09:37:25.835Z,8.16
2022-09-28T09:40:49.463Z,8.09
2022-09-28T09:44:12.339Z,8.06
2022-09-28T09:47:07.830Z,8.06
2022-09-28T09:50:05.452Z,8.07
2022-09-28T09:53:01.127Z,8.07
2022-09-28T09:55:37.232Z,8.05
2022-09-28T09:58:23.507Z,7.83
2022-09-28T10:01:08.425Z,7.79
2022-09-28T10:03:59.007Z,7.91
2022-09-28T10:06:36.282Z,7.95
2022-09-28T10:09:06.534Z,7.74
2022-09-28T10:11:42.443Z,7.82
2022-09-28T10:14:20.025Z,7.85
2022-09-28T10:16:54.269Z,7.68
2022-09-28T10:19:42.321Z,7.50
2022-09-28T10:22:37.768Z,7.37
2022-09-28T10:25:12.579Z,7.46
2022-09-28T10:27:45.913Z,7.41
2022-09-28T10:30:17.699Z,7.56
2022-09-28T10:32:47.739Z,7.56
2022-09-28T10:35:20.310Z,7.64
2022-09-28T10:37:56.449Z,7.60
2022-09-28T10:40:44.683Z,7.75
2022-09-28T10:43:30.477Z,7.70
2022-09-28T10:46:14.980Z,7.78
2022-09-28T10:48:55.106Z,7.80
2022-09-28T10:51:51.872Z,7.81
2022-09-28T10:54:29.736Z,7.84
2022-09-28T10:56:59.133Z,7.91
2022-09-28T10:59:54.315Z,7.97
2022-09-28T11:02:36.812Z,8.06
2022-09-28T11:05:19.881Z,8.03
2022-09-28T11:07:48.104Z,8.10
2022-09-28T11:10:26.091Z,8.15
2022-09-28T11:12:57.197Z,8.07
2022-09-28T11:15:33.257Z,8.19
2022-09-28T11:18:33.725Z,8.07
2022-09-28T11:21:16.977Z,8.06
2022-09-28T11:24:01.432Z,8.02
2022-09-28T11:26:43.113Z,7.96
2022-09-28T11:29:39.873Z,8.00
2022-09-28T11:32:26.594Z,8.13
2022-09-28T11:35:24.864Z,8.14
2022-09-28T11:38:05.481Z,8.72
2022-09-28T11:40:50.880Z,9.22
2022-09-28T11:43:40.066Z,9.31
2022-09-28T11:46:18.394Z,9.31
2022-09-28T11:48:51.038Z,9.50
2022-09-28T11:51:25.011Z,9.66
2022-09-28T11:53:59.585Z,10.17
2022-09-28T11:56:36.127Z,10.54
2022-09-28T11:59:14.565Z,11.27
2022-09-28T12:01:56.975Z,12.05
2022-09-28T12:04:41.986Z,12.70
2022-09-28T12:07:23.169Z,12.94
2022-09-28T12:10:00.336Z,12.34
2022-09-28T12:12:33.452Z,11.62
2022-09-28T12:15:15.043Z,11.28
2022-09-28T12:18:02.749Z,10.68
2022-09-28T12:20:32.967Z,10.63
2022-09-28T12:22:59.494Z,10.47
2022-09-28T12:25:29.462Z,10.29
2022-09-28T12:28:18.841Z,10.12
2022-09-28T12:30:47.643Z,9.93
2022-09-28T12:33:18.054Z,10.88
2022-09-28T12:35:59.935Z,11.67
2022-09-28T12:39:18.661Z,11.56
2022-09-28T12:41:50.639Z,11.72
2022-09-28T12:44:59.387Z,11.74
2022-09-28T12:47:37.215Z,12.60
2022-09-28T12:53:07.367Z,12.74
2022-09-28T12:55:41.974Z,12.55
2022-09-28T12:58:29.926Z,11.77
2022-09-28T13:01:08.746Z,11.29
2022-09-28T13:03:50.375Z,11.03
2022-09-28T13:06:34.261Z,10.67
2022-09-28T13:09:20.177Z,10.52
2022-09-28T13:12:18.545Z,10.41
2022-09-28T13:14:55.550Z,10.62
2022-09-28T13:18:01.714Z,10.54
2022-09-28T13:20:39.124Z,10.90
2022-09-28T13:23:31.190Z,11.21
2022-09-28T13:26:37.019Z,11.53
2022-09-28T13:29:11.390Z,11.33
2022-09-28T13:31:45.520Z,11.00
2022-09-28T13:34:20.542Z,10.62
2022-09-28T13:37:09.958Z,10.42
2022-09-28T13:39:38.223Z,10.28
2022-09-28T13:42:07.484Z,10.20
2022-09-28T13:45:09.480Z,10.25
2022-09-28T13:48:07.311Z,10.41
2022-09-28T13:50:44.327Z,10.17
2022-09-28T13:53:23.326Z,10.31
2022-09-28T13:56:18.205Z,10.23
2022-09-28T13:58:51.485Z,10.18
2022-09-28T14:01:23.318Z,10.15
2022-09-28T14:04:15.730Z,10.01
2022-09-28T14:06:53.560Z,10.11
2022-09-28T14:09:40.933Z,10.00
2022-09-28T14:12:34.883Z,10.05
2022-09-28T14:15:02.447Z,9.97
2022-09-28T14:17:50.426Z,10.08
2022-09-28T14:20:18.918Z,9.99
2022-09-28T14:22:57.888Z,9.92
2022-09-28T14:25:27.987Z,9.83
2022-09-28T14:28:04.992Z,9.80
2022-09-28T14:30:37.824Z,9.64
2022-09-28T14:33:22.420Z,9.60
2022-09-28T14:36:02.199Z,9.32
2022-09-28T14:38:50.847Z,9.20
2022-09-28T14:41:18.080Z,9.00
2022-09-28T14:43:44.609Z,9.08
2022-09-28T14:46:11.375Z,9.08
2022-09-28T14:48:50.842Z,9.16
2022-09-28T14:51:26.355Z,9.14
2022-09-28T14:54:10.482Z,9.24
2022-09-28T14:56:43.658Z,9.36
2022-09-28T14:59:17.251Z,9.64
2022-09-28T15:02:45.693Z,9.72
2022-09-28T15:05:28.673Z,9.91
2022-09-28T15:07:55.385Z,9.86
2022-09-28T15:10:33.615Z,9.74
2022-09-28T15:13:03.199Z,9.60
2022-09-28T15:15:38.144Z,9.59
2022-09-28T15:18:20.544Z,9.53
2022-09-28T15:20:49.409Z,9.47
2022-09-28T15:23:37.412Z,9.30
2022-09-28T15:26:09.398Z,9.17
2022-09-28T15:28:36.728Z,9.10
2022-09-28T15:31:05.373Z,9.02
2022-09-28T15:33:53.313Z,9.02
2022-09-28T15:36:29.742Z,9.02
2022-09-28T15:38:59.262Z,9.01
2022-09-28T15:41:27.023Z,9.04
2022-09-28T15:44:12.374Z,9.02
2022-09-28T15:46:42.392Z,9.00
2022-09-28T15:49:25.627Z,9.03
2022-09-28T15:51:56.130Z,8.99
2022-09-28T15:54:44.403Z,9.01
2022-09-28T15:57:37.040Z,9.05
2022-09-28T16:00:22.813Z,9.16
2022-09-28T16:03:03.772Z,9.26
2022-09-28T16:05:38.557Z,9.22
2022-09-28T16:08:06.021Z,9.29
2022-09-28T16:10:35.098Z,9.24
2022-09-28T16:13:15.536Z,9.20
2022-09-28T16:15:42.876Z,9.32
2022-09-28T16:18:20.248Z,9.29
2022-09-28T16:20:50.157Z,9.21
2022-09-28T16:23:16.827Z,9.30
2022-09-28T16:25:59.614Z,9.24
2022-09-28T16:28:38.220Z,9.18
2022-09-28T16:31:21.597Z,9.32
2022-09-28T16:33:59.588Z,9.28
2022-09-28T16:36:29.817Z,9.31
2022-09-28T16:38:56.360Z,9.33
2022-09-28T16:41:27.427Z,9.34
2022-09-28T16:44:01.288Z,9.29
2022-09-28T16:46:37.363Z,9.29
2022-09-28T16:49:07.071Z,9.33
2022-09-28T16:51:33.814Z,9.38
2022-09-28T16:54:32.626Z,9.30
2022-09-28T16:56:59.746Z,9.27
2022-09-28T16:59:28.316Z,9.11
2022-09-28T17:01:56.540Z,9.05
2022-09-28T17:04:25.088Z,9.06
2022-09-28T17:06:54.393Z,9.07
2022-09-28T17:09:22.526Z,9.03
2022-09-28T17:11:56.278Z,9.11
2022-09-28T17:14:23.621Z,9.06
2022-09-28T17:17:12.723Z,9.05
2022-09-28T17:19:40.757Z,8.93
2022-09-28T17:22:08.833Z,9.13
2022-09-28T17:24:35.486Z,9.04
2022-09-28T17:27:03.443Z,9.13
2022-09-28T17:29:30.493Z,9.11
2022-09-28T17:31:57.003Z,9.02
2022-09-28T17:34:23.896Z,8.97
2022-09-28T17:36:50.419Z,8.90
2022-09-28T17:39:18.671Z,8.90
2022-09-28T17:41:45.566Z,8.91
2022-09-28T17:44:16.054Z,8.84
2022-09-28T17:46:46.399Z,8.77
2022-09-28T17:49:13.941Z,8.54
2022-09-28T17:51:41.080Z,8.47
2022-09-28T17:54:08.275Z,8.60
2022-09-28T17:56:35.898Z,8.57
2022-09-28T17:59:05.709Z,8.47
2022-09-28T18:01:34.494Z,8.36
2022-09-28T18:04:03.255Z,8.36
2022-09-28T18:06:29.886Z,8.22
2022-09-28T18:08:56.406Z,8.19
2022-09-28T18:11:23.269Z,8.10
2022-09-28T18:13:50.061Z,7.95
2022-09-28T18:16:17.868Z,7.97
2022-09-28T18:18:44.976Z,7.86
2022-09-28T18:21:11.805Z,7.72
2022-09-28T18:23:39.713Z,7.75
2022-09-28T18:26:14.193Z,7.66
2022-09-28T18:28:41.531Z,7.48
2022-09-28T18:31:14.549Z,7.42
2022-09-28T18:33:41.381Z,7.38
2022-09-28T18:36:08.514Z,7.24
2022-09-28T18:38:36.236Z,7.30
2022-09-28T18:41:15.943Z,7.38
2022-09-28T18:43:51.894Z,7.34
2022-09-28T18:46:19.072Z,7.49
2022-09-28T18:48:47.669Z,7.49
2022-09-28T18:51:14.483Z,7.53
2022-09-28T18:53:41.150Z,7.59
2022-09-28T18:56:13.099Z,7.68
2022-09-28T18:58:41.337Z,7.68
2022-09-28T19:01:28.905Z,7.68
2022-09-28T19:03:59.291Z,7.77
2022-09-28T19:06:25.850Z,7.60
2022-09-28T19:08:54.306Z,7.59
2022-09-28T19:11:21.426Z,7.64
2022-09-28T19:13:48.221Z,7.64
2022-09-28T19:16:19.214Z,7.48
2022-09-28T19:18:45.818Z,7.32
2022-09-28T19:21:15.136Z,7.29
2022-09-28T19:23:46.946Z,7.30
2022-09-28T19:26:18.977Z,7.18
2022-09-28T19:28:45.678Z,7.11
2022-09-28T19:31:12.637Z,7.06
2022-09-28T19:33:40.177Z,6.96
2022-09-28T19:36:11.242Z,6.81
2022-09-28T19:38:39.434Z,6.89
2022-09-28T19:41:39.007Z,6.81
2022-09-28T19:44:25.050Z,6.78
2022-09-28T19:46:54.662Z,6.64
2022-09-28T19:49:22.796Z,6.62
2022-09-28T19:52:11.520Z,6.65
2022-09-28T19:54:38.245Z,6.68
2022-09-28T19:57:08.550Z,6.57
2022-09-28T19:59:36.945Z,6.58
2022-09-28T20:02:06.167Z,6.42
2022-09-28T20:04:33.021Z,6.17
2022-09-28T20:06:59.728Z,6.19
2022-09-28T20:09:26.234Z,6.17
2022-09-28T20:11:53.321Z,6.05
2022-09-28T20:14:21.462Z,5.89
2022-09-28T20:16:50.079Z,5.81
2022-09-28T20:19:19.001Z,5.91
2022-09-28T20:21:46.005Z,5.82
2022-09-28T20:24:12.620Z,5.75
2022-09-28T20:26:39.277Z,5.61
2022-09-28T20:29:07.998Z,5.61
2022-09-28T20:31:38.461Z,5.59
2022-09-28T20:34:06.166Z,5.46
2022-09-28T20:36:33.914Z,5.63
2022-09-28T20:39:04.043Z,5.64
2022-09-28T20:41:34.746Z,5.51
2022-09-28T20:44:05.066Z,5.53
2022-09-28T20:46:33.292Z,5.58
2022-09-28T20:49:00.038Z,5.39
2022-09-28T20:51:26.714Z,5.28
2022-09-28T20:53:58.160Z,5.21
2022-09-28T20:56:30.657Z,5.26
2022-09-28T20:58:57.568Z,5.26
2022-09-28T21:01:27.009Z,5.27
2022-09-28T21:03:56.154Z,5.25
2022-09-28T21:06:25.720Z,5.33
2022-09-28T21:08:52.985Z,5.33
2022-09-28T21:11:21.604Z,5.51
2022-09-28T21:13:52.112Z,5.78
2022-09-28T21:16:19.477Z,5.99
2022-09-28T21:18:47.227Z,6.05
2022-09-28T21:21:16.139Z,6.08
2022-09-28T21:23:53.837Z,6.05
2022-09-28T21:26:26.591Z,6.05
2022-09-28T21:29:01.230Z,6.01
2022-09-28T21:31:30.777Z,6.00
2022-09-28T21:33:58.125Z,6.07
2022-09-28T21:36:25.486Z,6.00
2022-09-28T21:38:53.472Z,6.09
2022-09-28T21:41:20.041Z,6.06
2022-09-28T21:43:46.554Z,6.12
2022-09-28T21:46:13.303Z,6.02
2022-09-28T21:48:40.114Z,6.10
2022-09-28T21:51:09.248Z,6.02
2022-09-28T21:53:37.228Z,6.07
2022-09-28T21:56:05.991Z,6.02
2022-09-28T21:58:34.361Z,5.95
2022-09-28T22:01:07.381Z,6.05
2022-09-28T22:03:35.932Z,6.00
2022-09-28T22:06:04.265Z,6.00
2022-09-28T22:08:30.993Z,6.00
2022-09-28T22:11:05.661Z,5.92
2022-09-28T22:13:39.690Z,5.92
2022-09-28T22:16:07.090Z,5.84
2022-09-28T22:18:34.259Z,5.78
2022-09-28T22:21:08.977Z,5.75
2022-09-28T22:23:36.736Z,5.65
2022-09-28T22:26:07.150Z,5.63
2022-09-28T22:28:34.299Z,5.55
2022-09-28T22:31:01.120Z,5.52
2022-09-28T22:33:27.911Z,5.50
2022-09-28T22:35:55.032Z,5.61
2022-09-28T22:38:24.245Z,5.56
2022-09-28T22:40:55.686Z,5.73
2022-09-28T22:43:25.318Z,5.72
2022-09-28T22:46:09.753Z,5.71
2022-09-28T22:48:37.701Z,5.72
2022-09-28T22:51:06.358Z,5.53
2022-09-28T22:53:34.833Z,5.40
2022-09-28T22:56:05.974Z,5.34
2022-09-28T22:58:34.058Z,5.31
2022-09-28T23:01:12.295Z,5.33
2022-09-28T23:03:40.411Z,5.29
2022-09-28T23:06:07.921Z,5.28
2022-09-28T23:08:34.981Z,5.51
2022-09-28T23:11:01.848Z,5.61
2022-09-28T23:13:28.984Z,5.75
2022-09-28T23:17:09.631Z,5.73
2022-09-28T23:22:40.075Z,5.73
2022-09-28T23:25:35.863Z,5.74
2022-09-28T23:28:04.040Z,5.73
2022-09-28T23:30:30.697Z,5.70
2022-09-28T23:32:57.346Z,5.78
2022-09-28T23:35:23.823Z,5.78
2022-09-28T23:37:51.765Z,5.78
2022-09-28T23:40:18.616Z,5.75
2022-09-28T23:42:45.426Z,5.77
2022-09-28T23:45:12.188Z,5.86
2022-09-28T23:47:38.878Z,5.90
2022-09-28T23:50:07.042Z,5.89
2022-09-28T23:52:33.996Z,5.75
2022-09-28T23:55:01.402Z,5.92
2022-09-28T23:57:28.000Z,5.89
2022-09-28T23:59:54.977Z,5.79
